Adamant, Vermont
Current Conditions -  °F | °C
As of 4:51 PM on Thursday 27 Nov 2014 (Local Time) from KMPV Reporting Station
Overcast Overcast  
Wind Chill: 18°   Ceiling: 1700
Heat Index: 25°   Visibility: 10mi
Dew Point: 21°   Wind: 6mph
Humidity: 85%   Direction: 330°NNW
Pressure: 30"   Gusts: NA
Location:  44.33°N, 72.5°W
Report Text: KMPV 272151Z AUTO 33005KT 10SM OVC017 M04/M06 A3000 RMK AO2 SLP178 T10391061
Loading
Personal Weather Stations






























Interactive Weather Map New forecast layout! Learn more

10-Day Weather Forecast

Advertisements
Track Severe Weather on mobile